Time;durP1;ratioP1;P1;durP2;ratioP2;P2;SDS_P1;SDS_P2;PMS_P1;PMS_P2;Temp;Humidity;BMP_temperature;BMP_pressure;BME280_temperature;BME280_humidity;BME280_pressure;Samples;Min_cycle;Max_cycle;Signal;HPM_P1;HPM_P2
2024/02/10 00:01:48;;;;;;;2.67;2.47;;;16.90;1.00;;;;;;2613630;54;20443;-73
2024/02/10 00:04:17;;;;;;;2.53;2.33;;;16.90;1.00;;;;;;2613352;46;20424;-73
2024/02/10 00:06:45;;;;;;;1.70;1.60;;;16.90;1.00;;;;;;2613439;39;20533;-72
2024/02/10 00:09:12;;;;;;;2.40;2.20;;;16.90;1.00;;;;;;2613365;54;20392;-73
2024/02/10 00:11:38;;;;;;;2.03;1.70;;;16.90;1.00;;;;;;2613143;54;20449;-73
2024/02/10 00:14:08;;;;;;;2.10;2.00;;;16.90;1.00;;;;;;2613832;54;20453;-61
2024/02/10 00:16:34;;;;;;;2.20;2.00;;;16.80;1.00;;;;;;2613048;54;20422;-62
2024/02/10 00:19:09;;;;;;;1.70;1.60;;;16.90;1.00;;;;;;2612095;54;20461;-62
2024/02/10 00:21:35;;;;;;;2.20;1.40;;;16.90;1.00;;;;;;2613381;54;20174;-61
2024/02/10 00:24:02;;;;;;;3.60;2.30;;;16.90;1.00;;;;;;2613001;54;20444;-61
2024/02/10 00:26:28;;;;;;;2.70;2.23;;;16.90;1.00;;;;;;2613098;54;20404;-61
2024/02/10 00:28:55;;;;;;;2.07;1.97;;;16.90;1.00;;;;;;2612462;54;20539;-62
2024/02/10 00:31:23;;;;;;;6.67;2.10;;;16.90;1.00;;;;;;2613708;39;20912;-61
2024/02/10 00:33:50;;;;;;;1.90;1.80;;;16.90;1.00;;;;;;2613732;54;20448;-60
2024/02/10 00:36:17;;;;;;;1.80;1.70;;;16.90;1.00;;;;;;2612259;54;21299;-61
2024/02/10 00:38:43;;;;;;;2.37;2.20;;;16.90;1.00;;;;;;2612856;47;20433;-61
2024/02/10 00:41:10;;;;;;;3.67;2.00;;;16.90;1.00;;;;;;2612137;54;21335;-60
2024/02/10 00:43:42;;;;;;;2.30;1.83;;;16.90;1.00;;;;;;2612867;54;21118;-66
2024/02/10 00:46:13;;;;;;;2.63;2.10;;;16.90;1.00;;;;;;2613291;39;20948;-67
2024/02/10 00:48:39;;;;;;;2.30;2.10;;;16.80;1.00;;;;;;2614070;39;20839;-66
2024/02/10 00:51:05;;;;;;;2.37;2.17;;;16.90;1.00;;;;;;2612933;54;20418;-67
2024/02/10 00:53:41;;;;;;;2.20;2.00;;;16.90;1.00;;;;;;2612882;39;20895;-67
2024/02/10 00:56:10;;;;;;;2.40;2.20;;;16.90;1.00;;;;;;2609908;54;20404;-67
2024/02/10 00:58:40;;;;;;;2.23;1.77;;;16.90;1.00;;;;;;2613256;39;20831;-66
2024/02/10 01:01:12;;;;;;;1.83;1.73;;;16.90;1.00;;;;;;2613265;54;20417;-67
2024/02/10 01:03:45;;;;;;;2.13;2.03;;;16.90;1.00;;;;;;2613278;47;20543;-63
2024/02/10 01:06:16;;;;;;;2.10;1.90;;;16.90;1.00;;;;;;2612882;47;20439;-64
2024/02/10 01:08:46;;;;;;;2.53;2.07;;;16.90;1.00;;;;;;2611662;54;20423;-63
2024/02/10 01:11:15;;;;;;;1.83;1.73;;;16.90;1.00;;;;;;2612575;54;20414;-64
2024/02/10 01:13:43;;;;;;;1.97;1.83;;;16.90;1.00;;;;;;2613584;54;20409;-62
2024/02/10 01:16:11;;;;;;;2.30;2.10;;;16.80;1.00;;;;;;2613080;54;20935;-64
2024/02/10 01:18:38;;;;;;;2.87;2.00;;;16.90;1.00;;;;;;2612049;54;21048;-65
2024/02/10 01:21:07;;;;;;;2.03;1.77;;;16.90;1.00;;;;;;2613111;54;20466;-64
2024/02/10 01:23:33;;;;;;;2.13;2.03;;;16.90;1.00;;;;;;2612382;54;20519;-64
2024/02/10 01:25:59;;;;;;;2.13;1.93;;;16.90;1.00;;;;;;2613466;54;21171;-64
2024/02/10 01:28:24;;;;;;;2.07;1.93;;;16.90;1.00;;;;;;2612812;54;20154;-64
2024/02/10 01:30:51;;;;;;;1.73;1.63;;;16.90;1.00;;;;;;2612652;54;20194;-64
2024/02/10 01:33:18;;;;;;;2.00;1.90;;;16.80;1.00;;;;;;2612793;54;20318;-64
2024/02/10 01:35:44;;;;;;;3.27;2.70;;;16.90;1.00;;;;;;2612674;54;20411;-64
2024/02/10 01:38:09;;;;;;;2.20;2.00;;;16.90;1.00;;;;;;2613257;54;21081;-63
2024/02/10 01:40:35;;;;;;;2.20;2.00;;;16.90;1.00;;;;;;2613161;54;20149;-64
2024/02/10 01:43:04;;;;;;;1.73;1.63;;;16.90;1.00;;;;;;2613150;54;20171;-64
2024/02/10 01:45:30;;;;;;;2.67;1.83;;;16.90;1.00;;;;;;2612860;54;20173;-64
2024/02/10 01:48:00;;;;;;;1.93;1.80;;;16.80;1.00;;;;;;2612288;54;20431;-64
2024/02/10 01:50:26;;;;;;;2.10;1.90;;;16.90;1.00;;;;;;2612593;47;20170;-64
2024/02/10 01:52:53;;;;;;;1.80;1.60;;;16.90;1.00;;;;;;2613374;54;20564;-64
2024/02/10 01:55:19;;;;;;;2.07;1.80;;;16.80;1.00;;;;;;2612739;54;20686;-64
2024/02/10 01:57:51;;;;;;;1.70;1.60;;;16.90;1.00;;;;;;2612663;47;20402;-64
2024/02/10 02:00:17;;;;;;;1.70;1.60;;;16.90;1.00;;;;;;2612357;54;20408;-63
2024/02/10 02:02:43;;;;;;;1.87;1.73;;;16.90;1.00;;;;;;2613160;51;20543;-64
2024/02/10 02:05:09;;;;;;;1.80;1.70;;;16.80;1.00;;;;;;2612937;39;21319;-64
2024/02/10 02:07:38;;;;;;;2.30;2.10;;;16.90;1.00;;;;;;2612977;54;20489;-64
2024/02/10 02:10:08;;;;;;;2.07;1.87;;;16.90;1.00;;;;;;2612723;54;20423;-65
2024/02/10 02:12:46;;;;;;;2.63;1.90;;;16.90;1.00;;;;;;2612268;54;20408;-61
2024/02/10 02:15:12;;;;;;;2.10;1.90;;;16.90;1.00;;;;;;2612612;54;20397;-62
2024/02/10 02:17:37;;;;;;;1.70;1.60;;;16.90;1.00;;;;;;2612889;54;21043;-62
2024/02/10 02:20:04;;;;;;;2.40;2.20;;;16.90;1.00;;;;;;2613118;54;20732;-61
2024/02/10 02:22:29;;;;;;;1.50;1.40;;;16.90;1.00;;;;;;2612011;54;20206;-61
2024/02/10 02:24:55;;;;;;;4.13;2.43;;;16.90;1.00;;;;;;2612898;54;20410;-61
2024/02/10 02:27:21;;;;;;;3.13;1.70;;;16.90;1.00;;;;;;2611614;54;20199;-61
2024/02/10 02:29:46;;;;;;;1.90;1.70;;;16.90;1.00;;;;;;2612402;54;20254;-61
2024/02/10 02:32:13;;;;;;;1.80;1.70;;;16.90;1.00;;;;;;2613257;54;20147;-60
2024/02/10 02:34:41;;;;;;;1.90;1.50;;;16.90;1.00;;;;;;2613642;54;20157;-73
2024/02/10 02:37:06;;;;;;;1.90;1.80;;;16.90;1.00;;;;;;2613313;54;20423;-73
2024/02/10 02:39:33;;;;;;;1.70;1.57;;;16.90;1.00;;;;;;2612575;54;20987;-73
2024/02/10 02:42:04;;;;;;;2.13;1.93;;;16.90;1.00;;;;;;2613339;39;20599;-73
2024/02/10 02:44:31;;;;;;;1.87;1.77;;;16.80;1.00;;;;;;2614098;39;20835;-73
2024/02/10 02:46:59;;;;;;;1.87;1.77;;;16.90;1.00;;;;;;2613581;54;20410;-73
2024/02/10 02:49:25;;;;;;;1.90;1.70;;;16.90;1.00;;;;;;2613076;54;20430;-74
2024/02/10 02:51:51;;;;;;;2.10;1.93;;;16.80;1.00;;;;;;2613359;47;20483;-72
2024/02/10 02:54:19;;;;;;;2.13;2.03;;;16.90;1.00;;;;;;2612530;54;20153;-73
2024/02/10 02:56:50;;;;;;;1.80;1.70;;;16.90;1.00;;;;;;2612697;47;20551;-73
2024/02/10 02:59:16;;;;;;;2.10;1.80;;;16.80;1.00;;;;;;2613407;54;20429;-73
2024/02/10 03:01:42;;;;;;;1.80;1.70;;;16.80;1.00;;;;;;2613824;54;20422;-73
2024/02/10 03:04:08;;;;;;;2.30;2.10;;;16.90;1.00;;;;;;2613452;47;20158;-66
2024/02/10 03:06:34;;;;;;;1.83;1.70;;;16.90;1.00;;;;;;2611969;54;20198;-67
2024/02/10 03:09:00;;;;;;;2.10;1.90;;;16.80;1.00;;;;;;2612756;54;20991;-67
2024/02/10 03:11:26;;;;;;;2.13;1.80;;;16.90;1.00;;;;;;2613102;54;20149;-66
2024/02/10 03:13:52;;;;;;;2.27;2.07;;;16.90;1.00;;;;;;2612726;54;20950;-67
2024/02/10 03:16:19;;;;;;;1.63;1.50;;;16.80;1.00;;;;;;2612593;54;20415;-67
2024/02/10 03:18:46;;;;;;;1.70;1.60;;;16.90;1.00;;;;;;2612340;54;20414;-67
2024/02/10 03:21:17;;;;;;;1.80;1.50;;;16.90;1.00;;;;;;2613317;54;20411;-66
2024/02/10 03:23:46;;;;;;;2.43;2.13;;;16.90;1.00;;;;;;2613568;39;21160;-61
2024/02/10 03:26:12;;;;;;;1.60;1.50;;;16.80;1.00;;;;;;2613590;54;20445;-62
2024/02/10 03:28:38;;;;;;;2.10;1.90;;;16.90;1.00;;;;;;2613098;54;20412;-62
2024/02/10 03:31:05;;;;;;;2.37;2.17;;;16.90;1.00;;;;;;2612197;47;20166;-61
2024/02/10 03:33:33;;;;;;;1.70;1.47;;;16.90;1.00;;;;;;2612818;54;20541;-62
2024/02/10 03:36:03;;;;;;;2.10;1.80;;;16.80;1.00;;;;;;2612706;54;20956;-61
2024/02/10 03:38:29;;;;;;;2.00;1.80;;;16.80;1.00;;;;;;2613718;54;20414;-61
2024/02/10 03:40:54;;;;;;;1.57;1.43;;;16.80;1.00;;;;;;2613463;54;20410;-61
2024/02/10 03:43:27;;;;;;;2.20;1.53;;;16.80;1.00;;;;;;2613017;47;20534;-62
2024/02/10 03:45:55;;;;;;;2.00;1.77;;;16.90;1.00;;;;;;2613042;54;20381;-61
2024/02/10 03:48:22;;;;;;;2.07;1.90;;;16.90;1.00;;;;;;2612749;47;20441;-63
2024/02/10 03:50:48;;;;;;;1.77;1.67;;;16.80;1.00;;;;;;2613334;54;20430;-63
2024/02/10 03:53:14;;;;;;;2.60;1.70;;;16.80;1.00;;;;;;2613743;54;20401;-63
2024/02/10 03:55:39;;;;;;;1.97;1.87;;;16.90;1.00;;;;;;2612721;54;20426;-62
2024/02/10 03:58:08;;;;;;;1.90;1.80;;;16.80;1.00;;;;;;2612992;54;20290;-62
2024/02/10 04:00:36;;;;;;;1.93;1.80;;;16.90;1.00;;;;;;2612437;54;20172;-62
2024/02/10 04:03:03;;;;;;;1.73;1.63;;;16.90;1.00;;;;;;2612579;47;20454;-62
2024/02/10 04:05:33;;;;;;;1.67;1.57;;;16.90;1.00;;;;;;2613773;39;20901;-62
2024/02/10 04:07:59;;;;;;;1.60;1.50;;;16.90;1.00;;;;;;2613512;51;20568;-62
2024/02/10 04:10:25;;;;;;;1.70;1.60;;;16.80;1.00;;;;;;2612486;54;21240;-62
2024/02/10 04:12:50;;;;;;;2.00;1.83;;;16.80;1.00;;;;;;2613520;54;20394;-62
2024/02/10 04:15:16;;;;;;;1.83;1.73;;;16.80;1.00;;;;;;2614180;39;20551;-62
2024/02/10 04:17:48;;;;;;;1.80;1.70;;;16.90;1.00;;;;;;2612529;54;20182;-63
2024/02/10 04:20:15;;;;;;;2.00;1.80;;;16.90;1.00;;;;;;2613609;47;20197;-63
2024/02/10 04:22:45;;;;;;;1.70;1.60;;;16.80;1.00;;;;;;2613273;54;20419;-62
2024/02/10 04:25:12;;;;;;;1.60;1.50;;;16.80;1.00;;;;;;2611791;54;20438;-62
2024/02/10 04:27:38;;;;;;;1.73;1.63;;;16.90;1.00;;;;;;2612474;54;20427;-63
2024/02/10 04:30:05;;;;;;;2.23;1.70;;;16.80;1.00;;;;;;2613319;54;20447;-63
2024/02/10 04:32:31;;;;;;;2.00;1.80;;;16.80;1.00;;;;;;2613543;54;20423;-64
2024/02/10 04:34:57;;;;;;;2.20;2.00;;;16.80;1.00;;;;;;2612862;47;20984;-64
2024/02/10 04:37:22;;;;;;;1.77;1.60;;;16.80;1.00;;;;;;2612111;54;20517;-64
2024/02/10 04:39:48;;;;;;;1.80;1.70;;;16.80;1.00;;;;;;2613280;54;20737;-64
2024/02/10 04:42:15;;;;;;;1.50;1.40;;;16.80;1.00;;;;;;2612517;54;20147;-64
2024/02/10 04:44:40;;;;;;;1.70;1.60;;;16.80;1.00;;;;;;2613657;54;20449;-64
2024/02/10 04:47:06;;;;;;;1.60;1.50;;;16.80;1.00;;;;;;2612529;47;20482;-63
2024/02/10 04:49:35;;;;;;;1.67;1.57;;;16.80;1.00;;;;;;2612949;54;21315;-64
2024/02/10 04:52:01;;;;;;;1.70;1.60;;;16.80;1.00;;;;;;2613183;54;20154;-63
2024/02/10 04:54:27;;;;;;;1.70;1.60;;;16.80;1.00;;;;;;2612695;54;20408;-67
2024/02/10 04:56:53;;;;;;;1.50;1.40;;;16.80;1.00;;;;;;2612328;54;20406;-66
2024/02/10 04:59:24;;;;;;;1.70;1.60;;;16.80;1.00;;;;;;2613075;54;20412;-66
2024/02/10 05:01:51;;;;;;;2.63;1.77;;;16.80;1.00;;;;;;2613401;46;20205;-67
2024/02/10 05:04:17;;;;;;;1.80;1.70;;;16.80;1.00;;;;;;2613380;54;20472;-68
2024/02/10 05:06:43;;;;;;;1.93;1.33;;;16.80;1.00;;;;;;2612539;54;20414;-67
2024/02/10 05:09:11;;;;;;;1.60;1.50;;;16.80;1.00;;;;;;2613185;47;20285;-67
2024/02/10 05:11:37;;;;;;;1.80;1.70;;;16.80;1.00;;;;;;2612212;54;20391;-66
2024/02/10 05:14:04;;;;;;;1.70;1.40;;;16.80;1.00;;;;;;2612890;54;20526;-66
2024/02/10 05:16:30;;;;;;;1.60;1.50;;;16.80;1.00;;;;;;2612753;54;20519;-66
2024/02/10 05:18:56;;;;;;;1.80;1.63;;;16.80;1.00;;;;;;2612621;54;20417;-65
2024/02/10 05:21:27;;;;;;;1.47;1.37;;;16.80;1.00;;;;;;2612200;54;20408;-65
2024/02/10 05:23:54;;;;;;;1.60;1.50;;;16.80;1.00;;;;;;2612202;54;20163;-66
2024/02/10 05:26:19;;;;;;;1.57;1.47;;;16.80;1.00;;;;;;2612746;54;20409;-66
2024/02/10 05:28:47;;;;;;;1.63;1.53;;;16.80;1.00;;;;;;2613469;54;20395;-67
2024/02/10 05:31:13;;;;;;;1.43;1.33;;;16.80;1.00;;;;;;2613055;54;20173;-67
2024/02/10 05:33:45;;;;;;;1.20;1.10;;;16.80;1.00;;;;;;2613419;54;20554;-67
2024/02/10 05:36:10;;;;;;;1.43;1.33;;;16.80;1.00;;;;;;2613007;54;20702;-68
2024/02/10 05:38:38;;;;;;;1.60;1.50;;;16.80;1.00;;;;;;2613494;54;20423;-67
2024/02/10 05:41:07;;;;;;;1.63;1.40;;;16.80;1.00;;;;;;2613337;39;20697;-67
2024/02/10 05:43:35;;;;;;;1.90;1.70;;;16.80;1.00;;;;;;2612977;54;21028;-61
2024/02/10 05:46:06;;;;;;;1.50;1.40;;;16.80;1.00;;;;;;2612351;54;20455;-62
2024/02/10 05:48:32;;;;;;;1.57;1.47;;;16.80;1.00;;;;;;2613854;39;20828;-62
2024/02/10 05:51:01;;;;;;;1.40;1.30;;;16.80;1.00;;;;;;2613201;47;20448;-62
2024/02/10 05:53:27;;;;;;;1.60;1.50;;;16.80;1.00;;;;;;2613731;54;20477;-62
2024/02/10 05:55:53;;;;;;;1.70;1.43;;;16.80;1.00;;;;;;2613023;54;20446;-63
2024/02/10 05:58:22;;;;;;;1.37;1.27;;;16.80;1.00;;;;;;2612692;54;21035;-63
2024/02/10 06:00:51;;;;;;;1.70;1.60;;;16.80;1.00;;;;;;2611954;51;20181;-62
2024/02/10 06:03:18;;;;;;;1.67;1.57;;;16.80;1.00;;;;;;2613236;47;20424;-63
2024/02/10 06:05:44;;;;;;;1.50;1.40;;;16.80;1.00;;;;;;2612620;54;20419;-62
2024/02/10 06:08:10;;;;;;;1.70;1.60;;;16.80;1.00;;;;;;2612676;54;20420;-62
2024/02/10 06:10:36;;;;;;;1.50;1.40;;;16.80;1.00;;;;;;2613281;47;20969;-62
2024/02/10 06:13:03;;;;;;;1.43;1.33;;;16.80;1.00;;;;;;2613261;54;20406;-64
2024/02/10 06:15:29;;;;;;;1.60;1.50;;;16.80;1.00;;;;;;2613003;54;20190;-61
2024/02/10 06:17:56;;;;;;;1.53;1.43;;;16.80;1.00;;;;;;2612171;54;21192;-62
2024/02/10 06:20:24;;;;;;;1.40;1.30;;;16.80;1.00;;;;;;2612641;47;20436;-63
2024/02/10 06:22:54;;;;;;;1.40;1.30;;;16.80;1.00;;;;;;2612864;54;20957;-62
2024/02/10 06:25:27;;;;;;;1.33;1.23;;;16.80;1.00;;;;;;2612653;47;20424;-61
2024/02/10 06:27:54;;;;;;;1.20;1.10;;;16.80;1.00;;;;;;2613130;54;20433;-62
2024/02/10 06:30:21;;;;;;;1.37;1.27;;;16.80;1.00;;;;;;2612415;54;20502;-63
2024/02/10 06:32:48;;;;;;;1.47;1.37;;;16.80;1.00;;;;;;2613778;54;20983;-67
2024/02/10 06:35:14;;;;;;;1.50;1.40;;;16.80;1.00;;;;;;2612803;54;20427;-67
2024/02/10 06:37:46;;;;;;;1.60;1.50;;;16.80;1.00;;;;;;2613227;54;20432;-66
2024/02/10 06:40:14;;;;;;;1.50;1.40;;;16.80;1.00;;;;;;2612233;54;20407;-66
2024/02/10 06:42:42;;;;;;;1.23;1.13;;;16.80;1.00;;;;;;2612799;54;20403;-67
2024/02/10 06:45:14;;;;;;;1.40;1.30;;;16.80;1.00;;;;;;2612410;54;20428;-67
2024/02/10 06:47:47;;;;;;;1.50;1.40;;;16.80;1.00;;;;;;2612645;54;20426;-67
2024/02/10 06:50:14;;;;;;;1.40;1.30;;;16.80;1.00;;;;;;2612378;54;20409;-67
2024/02/10 06:52:44;;;;;;;1.57;1.47;;;16.80;1.00;;;;;;2612831;47;20420;-59
2024/02/10 06:55:12;;;;;;;1.43;1.33;;;16.80;1.00;;;;;;2611606;54;20402;-59
2024/02/10 06:57:41;;;;;;;1.30;1.20;;;16.80;1.00;;;;;;2612411;39;20838;-59
2024/02/10 07:00:10;;;;;;;1.50;1.40;;;16.80;1.00;;;;;;2611960;54;20437;-60
2024/02/10 07:02:43;;;;;;;1.70;1.60;;;16.80;1.00;;;;;;2614014;31;20918;-59
2024/02/10 07:05:16;;;;;;;1.30;1.20;;;16.80;1.00;;;;;;2611469;54;20419;-60
2024/02/10 07:07:43;;;;;;;1.60;1.50;;;16.80;1.00;;;;;;2612532;47;20431;-59
2024/02/10 07:10:17;;;;;;;1.30;1.20;;;16.80;1.00;;;;;;2612280;54;20416;-60
2024/02/10 07:12:45;;;;;;;2.23;1.63;;;16.80;1.00;;;;;;2612257;54;20940;-62
2024/02/10 07:15:17;;;;;;;1.70;1.60;;;16.80;1.00;;;;;;2611865;54;20403;-63
2024/02/10 07:17:43;;;;;;;1.57;1.10;;;16.80;1.00;;;;;;2613261;54;20423;-61
2024/02/10 07:20:20;;;;;;;2.13;1.10;;;16.80;1.00;;;;;;2611370;54;20966;-62
2024/02/10 07:22:54;;;;;;;2.53;1.40;;;16.80;1.00;;;;;;2611700;54;20391;-62
2024/02/10 07:25:24;;;;;;;1.90;1.53;;;16.80;1.00;;;;;;2612475;54;20468;-62
2024/02/10 07:27:50;;;;;;;1.50;1.40;;;16.80;1.00;;;;;;2612209;54;20968;-62
2024/02/10 07:30:20;;;;;;;1.50;1.30;;;16.80;1.00;;;;;;2611816;54;20446;-62
2024/02/10 07:32:49;;;;;;;1.70;1.50;;;16.80;1.00;;;;;;2612695;39;21215;-62
2024/02/10 07:35:22;;;;;;;1.27;1.17;;;16.80;1.00;;;;;;2612529;47;20471;-62
2024/02/10 07:37:48;;;;;;;1.63;1.53;;;16.80;1.00;;;;;;2613022;39;20752;-62
2024/02/10 07:40:14;;;;;;;1.40;1.30;;;16.80;1.00;;;;;;2612501;54;20415;-62
2024/02/10 07:42:40;;;;;;;1.50;1.40;;;16.80;1.00;;;;;;2611338;54;20431;-59
2024/02/10 07:45:07;;;;;;;3.20;1.43;;;16.80;1.00;;;;;;2612459;54;20410;-60
2024/02/10 07:47:32;;;;;;;2.47;1.30;;;16.90;1.00;;;;;;2611890;54;20447;-60
2024/02/10 07:49:59;;;;;;;1.50;1.40;;;16.80;1.00;;;;;;2612541;54;20441;-60
2024/02/10 07:52:30;;;;;;;1.23;1.13;;;16.90;1.00;;;;;;2612027;54;20287;-59
2024/02/10 07:54:59;;;;;;;1.30;1.20;;;16.90;1.00;;;;;;2612551;54;20429;-59
2024/02/10 07:57:26;;;;;;;1.83;1.47;;;16.90;1.00;;;;;;2611651;54;20424;-60
2024/02/10 07:59:56;;;;;;;1.27;1.17;;;16.90;1.00;;;;;;2612037;54;21403;-60
2024/02/10 08:02:25;;;;;;;1.83;1.40;;;16.90;1.00;;;;;;2612156;47;20531;-72
2024/02/10 08:04:54;;;;;;;1.50;1.40;;;16.90;1.00;;;;;;2612957;54;20406;-72
2024/02/10 08:07:27;;;;;;;1.60;1.43;;;16.90;1.00;;;;;;2612649;47;20409;-73
2024/02/10 08:09:53;;;;;;;1.40;1.30;;;16.90;1.00;;;;;;2613680;54;20405;-73
2024/02/10 08:12:25;;;;;;;1.50;1.40;;;16.90;1.00;;;;;;2612622;47;20520;-73
2024/02/10 08:14:56;;;;;;;2.30;1.40;;;16.90;1.00;;;;;;2613559;47;20173;-72
2024/02/10 08:17:26;;;;;;;1.33;1.23;;;16.90;1.00;;;;;;2613839;54;20414;-73
2024/02/10 08:19:59;;;;;;;1.63;1.43;;;16.90;1.00;;;;;;2614081;54;20394;-73
2024/02/10 08:22:34;;;;;;;2.70;1.37;;;16.90;1.00;;;;;;2613886;54;20404;-64
2024/02/10 08:25:01;;;;;;;1.57;1.20;;;17.00;1.00;;;;;;2612369;54;20400;-62
2024/02/10 08:27:28;;;;;;;1.40;1.13;;;17.00;1.00;;;;;;2613321;54;20439;-63
2024/02/10 08:29:55;;;;;;;1.97;1.80;;;17.00;1.00;;;;;;2613060;54;20402;-64
2024/02/10 08:32:21;;;;;;;1.63;1.30;;;17.10;1.00;;;;;;2613215;54;20525;-64
2024/02/10 08:34:47;;;;;;;1.47;1.37;;;17.10;1.00;;;;;;2613257;54;20393;-62
2024/02/10 08:37:14;;;;;;;2.07;1.37;;;17.20;1.00;;;;;;2611977;54;20460;-64
2024/02/10 08:39:43;;;;;;;1.40;1.30;;;17.20;1.00;;;;;;2613414;39;20458;-64
2024/02/10 08:42:12;;;;;;;1.70;1.33;;;17.20;1.00;;;;;;2613036;54;20455;-63
2024/02/10 08:44:38;;;;;;;1.60;1.50;;;17.20;1.00;;;;;;2612377;54;20428;-64
2024/02/10 08:47:06;;;;;;;2.20;1.40;;;17.20;1.00;;;;;;2612477;54;20531;-63
2024/02/10 08:49:35;;;;;;;2.83;1.70;;;17.20;1.00;;;;;;2612845;54;20394;-63
2024/02/10 08:52:06;;;;;;;1.87;1.20;;;17.20;1.00;;;;;;2613265;39;20818;-64
2024/02/10 08:54:32;;;;;;;1.47;1.37;;;17.30;1.00;;;;;;2613207;47;20429;-63
2024/02/10 08:57:02;;;;;;;1.40;1.30;;;17.30;1.00;;;;;;2613067;31;20806;-64
2024/02/10 08:59:32;;;;;;;1.80;1.70;;;17.20;1.00;;;;;;2611716;54;21565;-63
2024/02/10 09:02:01;;;;;;;1.50;1.40;;;17.30;1.00;;;;;;2612034;47;20444;-63
2024/02/10 09:04:31;;;;;;;2.30;1.40;;;17.30;1.00;;;;;;2612432;54;20437;-64
2024/02/10 09:07:00;;;;;;;1.47;1.37;;;17.20;1.00;;;;;;2612934;47;20434;-64
2024/02/10 09:09:27;;;;;;;1.53;1.37;;;17.20;1.00;;;;;;2613090;54;20998;-64
2024/02/10 09:11:53;;;;;;;1.60;1.30;;;17.30;1.00;;;;;;2611628;54;20426;-63
2024/02/10 09:14:19;;;;;;;1.57;1.40;;;17.20;1.00;;;;;;2612730;47;20528;-65
2024/02/10 09:16:45;;;;;;;1.40;1.00;;;17.30;1.00;;;;;;2613473;54;20490;-66
2024/02/10 09:19:16;;;;;;;1.40;1.30;;;17.30;1.00;;;;;;2613170;39;20992;-65
2024/02/10 09:21:44;;;;;;;1.40;1.30;;;17.30;1.00;;;;;;2613032;54;20154;-65
2024/02/10 09:24:13;;;;;;;1.53;1.43;;;17.30;1.00;;;;;;2612840;54;20424;-65
2024/02/10 09:26:43;;;;;;;1.50;1.40;;;17.40;1.00;;;;;;2612599;46;20443;-65
2024/02/10 09:29:09;;;;;;;1.33;1.23;;;17.50;1.00;;;;;;2613219;54;20426;-66
2024/02/10 09:31:34;;;;;;;1.30;1.20;;;17.60;1.00;;;;;;2612721;54;20405;-65
2024/02/10 09:34:01;;;;;;;1.60;1.50;;;17.80;1.00;;;;;;2612994;54;20174;-66
2024/02/10 09:36:28;;;;;;;1.30;1.20;;;19.00;1.00;;;;;;2612729;47;20180;-66
2024/02/10 09:38:54;;;;;;;1.30;1.20;;;20.80;1.00;;;;;;2612566;54;20395;-66
2024/02/10 09:41:20;;;;;;;1.67;1.40;;;21.90;1.00;;;;;;2611860;54;20411;-65
2024/02/10 09:43:48;;;;;;;1.30;1.20;;;22.70;1.00;;;;;;2612714;54;20459;-66
2024/02/10 09:46:14;;;;;;;1.67;1.50;;;23.30;1.00;;;;;;2612206;54;20175;-65
2024/02/10 09:48:58;;;;;;;1.57;1.47;;;23.60;1.00;;;;;;2613421;54;20432;-64
2024/02/10 09:51:24;;;;;;;1.40;1.20;;;23.80;1.00;;;;;;2613402;54;20409;-66
2024/02/10 09:53:50;;;;;;;2.10;1.40;;;24.10;1.00;;;;;;2612359;47;20546;-64
2024/02/10 09:56:15;;;;;;;1.17;1.07;;;24.20;1.00;;;;;;2613009;54;20146;-65
2024/02/10 09:58:44;;;;;;;1.40;1.30;;;24.10;1.00;;;;;;2612533;54;20162;-65
2024/02/10 10:01:11;;;;;;;1.67;1.50;;;23.90;1.00;;;;;;2612101;54;21149;-66
2024/02/10 10:03:40;;;;;;;1.83;1.53;;;23.90;1.00;;;;;;2612996;54;20431;-60
2024/02/10 10:06:09;;;;;;;1.20;1.10;;;24.00;1.00;;;;;;2612166;54;20515;-61
2024/02/10 10:08:37;;;;;;;1.20;1.10;;;23.40;1.00;;;;;;2613248;54;20433;-61
2024/02/10 10:11:10;;;;;;;1.23;1.13;;;21.90;1.00;;;;;;2612883;39;20738;-60
2024/02/10 10:13:40;;;;;;;1.30;1.20;;;20.70;1.00;;;;;;2612866;54;20482;-60
2024/02/10 10:16:09;;;;;;;1.20;1.10;;;19.80;1.00;;;;;;2612792;54;20427;-60
2024/02/10 10:18:36;;;;;;;1.50;1.40;;;19.40;1.00;;;;;;2612278;54;20564;-60
2024/02/10 10:21:06;;;;;;;1.40;1.17;;;19.00;1.00;;;;;;2612850;47;20427;-59
2024/02/10 10:23:33;;;;;;;1.37;1.27;;;18.80;1.00;;;;;;2613096;54;20404;-66
2024/02/10 10:25:59;;;;;;;1.40;1.30;;;18.70;1.00;;;;;;2612503;54;21172;-65
2024/02/10 10:28:25;;;;;;;1.53;1.43;;;18.50;1.00;;;;;;2612205;54;20526;-64
2024/02/10 10:30:50;;;;;;;1.50;1.40;;;18.40;1.00;;;;;;2611791;54;20171;-66
2024/02/10 10:33:20;;;;;;;1.67;1.40;;;18.40;1.00;;;;;;2611578;47;20170;-66
2024/02/10 10:35:47;;;;;;;1.50;1.33;;;18.30;1.00;;;;;;2612945;54;20182;-66
2024/02/10 10:38:14;;;;;;;1.10;1.00;;;18.30;1.00;;;;;;2613186;54;20414;-66
2024/02/10 10:40:43;;;;;;;1.70;1.40;;;18.30;1.00;;;;;;2613087;54;20427;-65
2024/02/10 10:43:12;;;;;;;1.57;1.47;;;18.20;1.00;;;;;;2612851;54;20569;-60
2024/02/10 10:45:38;;;;;;;1.50;1.30;;;18.20;1.00;;;;;;2612886;54;20424;-60
2024/02/10 10:48:05;;;;;;;1.50;1.40;;;18.30;1.00;;;;;;2611816;47;20455;-60
2024/02/10 10:50:31;;;;;;;1.67;1.30;;;18.30;1.00;;;;;;2612768;54;20411;-60
2024/02/10 10:53:11;;;;;;;1.60;1.30;;;18.30;1.00;;;;;;2612749;54;20441;-59
2024/02/10 10:55:43;;;;;;;1.50;1.20;;;18.30;1.00;;;;;;2611480;54;20418;-60
2024/02/10 10:58:23;;;;;;;1.63;1.40;;;18.30;1.00;;;;;;2612174;54;20462;-60
2024/02/10 11:00:50;;;;;;;1.40;1.30;;;18.30;1.00;;;;;;2613207;39;21214;-60
2024/02/10 11:03:17;;;;;;;1.50;1.30;;;18.30;1.00;;;;;;2612172;47;20442;-59
2024/02/10 11:05:49;;;;;;;1.47;1.37;;;18.30;1.00;;;;;;2611759;54;20466;-60
2024/02/10 11:08:25;;;;;;;1.40;1.30;;;18.30;1.00;;;;;;2613503;39;20777;-59
2024/02/10 11:11:00;;;;;;;1.60;1.50;;;18.20;1.00;;;;;;2611709;54;20493;-61
2024/02/10 11:13:31;;;;;;;1.60;1.50;;;18.20;1.00;;;;;;2612562;54;20387;-61
2024/02/10 11:16:14;;;;;;;1.77;1.50;;;18.20;1.00;;;;;;2612202;54;20396;-62
2024/02/10 11:18:57;;;;;;;1.40;1.30;;;18.20;1.00;;;;;;2612538;54;20431;-62
2024/02/10 11:21:30;;;;;;;1.27;1.17;;;18.20;1.00;;;;;;2612848;54;20412;-62
2024/02/10 11:24:10;;;;;;;1.67;1.57;;;18.20;1.00;;;;;;2612404;54;20405;-62
2024/02/10 11:26:39;;;;;;;1.37;1.27;;;18.20;1.00;;;;;;2612384;54;20422;-61
2024/02/10 11:29:06;;;;;;;1.40;1.30;;;18.20;1.00;;;;;;2612363;54;20401;-62
2024/02/10 11:31:33;;;;;;;1.60;1.50;;;18.20;1.00;;;;;;2612104;54;20423;-62
2024/02/10 11:34:11;;;;;;;1.40;1.30;;;18.20;1.00;;;;;;2612969;54;20428;-63
2024/02/10 11:36:38;;;;;;;1.17;1.07;;;18.20;1.00;;;;;;2612852;54;20550;-64
2024/02/10 11:39:09;;;;;;;2.20;1.50;;;18.20;1.00;;;;;;2612856;54;21326;-63
2024/02/10 11:41:41;;;;;;;1.50;1.40;;;18.20;1.00;;;;;;2611923;54;20451;-64
2024/02/10 11:44:07;;;;;;;1.50;1.40;;;18.20;1.00;;;;;;2613360;47;20426;-62
2024/02/10 11:46:37;;;;;;;1.10;1.00;;;18.20;1.00;;;;;;2612295;54;20969;-63
2024/02/10 11:49:03;;;;;;;1.20;1.10;;;18.10;1.00;;;;;;2613482;54;20457;-63
2024/02/10 11:51:29;;;;;;;1.20;1.10;;;18.10;1.00;;;;;;2613479;54;20396;-63
2024/02/10 11:53:57;;;;;;;1.50;1.40;;;18.10;1.00;;;;;;2612961;54;20396;-66
2024/02/10 11:56:25;;;;;;;1.70;1.43;;;18.10;1.00;;;;;;2612626;54;20415;-65
2024/02/10 11:58:51;;;;;;;1.70;1.30;;;18.10;1.00;;;;;;2613112;54;20404;-67
2024/02/10 12:01:17;;;;;;;1.67;1.43;;;18.10;1.00;;;;;;2611674;54;20534;-66
2024/02/10 12:03:43;;;;;;;1.50;1.10;;;18.10;1.00;;;;;;2613665;54;20425;-65
2024/02/10 12:06:12;;;;;;;1.27;1.17;;;18.10;1.00;;;;;;2612609;54;20925;-66
2024/02/10 12:08:43;;;;;;;1.40;1.30;;;18.10;1.00;;;;;;2612697;54;20410;-65
2024/02/10 12:11:15;;;;;;;1.20;1.10;;;18.10;1.00;;;;;;2612951;39;20810;-65
2024/02/10 12:13:42;;;;;;;1.30;1.20;;;18.10;1.00;;;;;;2613510;54;20429;-66
2024/02/10 12:16:12;;;;;;;1.50;1.40;;;18.00;1.00;;;;;;2613203;54;20452;-65
2024/02/10 12:18:39;;;;;;;1.40;1.20;;;18.00;1.00;;;;;;2611672;47;20423;-66
2024/02/10 12:21:05;;;;;;;1.33;1.13;;;18.00;1.00;;;;;;2613172;47;20445;-64
2024/02/10 12:23:32;;;;;;;1.20;1.10;;;18.00;1.00;;;;;;2612266;54;20448;-61
2024/02/10 12:26:01;;;;;;;1.60;1.50;;;18.00;1.00;;;;;;2613147;47;20435;-62
2024/02/10 12:28:26;;;;;;;1.30;1.20;;;18.00;1.00;;;;;;2613186;54;20399;-61
2024/02/10 12:30:54;;;;;;;1.20;1.10;;;18.00;1.00;;;;;;2612553;54;20404;-61
2024/02/10 12:33:21;;;;;;;1.30;1.20;;;17.90;1.00;;;;;;2613108;54;20269;-61
2024/02/10 12:35:49;;;;;;;1.40;1.30;;;17.90;1.00;;;;;;2612217;54;20412;-61
2024/02/10 12:38:15;;;;;;;1.47;1.37;;;17.90;1.00;;;;;;2613310;54;20422;-62
2024/02/10 12:40:41;;;;;;;1.33;1.23;;;18.00;1.00;;;;;;2613049;54;20404;-62
2024/02/10 12:43:13;;;;;;;1.20;1.10;;;18.00;1.00;;;;;;2612504;54;20432;-71
2024/02/10 12:45:42;;;;;;;1.50;1.40;;;18.00;1.00;;;;;;2613219;54;20189;-72
2024/02/10 12:48:08;;;;;;;1.37;1.27;;;18.00;1.00;;;;;;2613214;54;21013;-72
2024/02/10 12:50:34;;;;;;;1.50;1.40;;;18.00;1.00;;;;;;2613377;47;20423;-72
2024/02/10 12:53:00;;;;;;;1.43;1.33;;;18.00;1.00;;;;;;2612592;54;20422;-72
2024/02/10 12:55:26;;;;;;;1.30;1.20;;;18.00;1.00;;;;;;2612954;47;20171;-72
2024/02/10 12:57:52;;;;;;;1.30;1.20;;;18.00;1.00;;;;;;2612698;54;20419;-72
2024/02/10 13:00:24;;;;;;;1.40;1.10;;;18.00;1.00;;;;;;2613496;31;20612;-73
2024/02/10 13:02:51;;;;;;;1.20;1.10;;;18.10;1.00;;;;;;2612816;54;20446;-67